Black Point, California
Current Conditions -  °F | °C
As of 8:15 AM on Monday 24 Nov 2014 (Local Time) from KDVO Reporting Station
NA  
Wind Chill: 41°   Ceiling: NA
Heat Index: 41°   Visibility: NA
Dew Point: 41°   Wind: 0mph
Humidity: 100%   Direction: NA
Pressure: 30.41"   Gusts: NA
Location:  38.1262°N, 122.559°W
Report Text: KDVO 241615Z AUTO 00000KT 05/05 A3041 RMK AO2
Loading
Personal Weather Stations






























Interactive Weather Map New forecast layout! Learn more

10-Day Weather Forecast

Advertisements
Track Severe Weather on mobile